sensor_id;sensor_type;location;lat;lon;timestamp;P1;durP1;ratioP1;P2;durP2;ratioP2
2756;SDS011;1386;50.862;6.494;2023-04-01T06:31:50;5.20;;;2.00;;
2756;SDS011;1386;50.862;6.494;2023-04-01T06:34:31;2.77;;;1.70;;
2756;SDS011;1386;50.862;6.494;2023-04-01T06:37:10;2.70;;;2.00;;
2756;SDS011;1386;50.862;6.494;2023-04-01T06:39:53;2.50;;;1.80;;
2756;SDS011;1386;50.862;6.494;2023-04-01T06:42:38;1.97;;;1.80;;
2756;SDS011;1386;50.862;6.494;2023-04-01T06:45:22;2.40;;;1.87;;
2756;SDS011;1386;50.862;6.494;2023-04-01T06:48:05;2.80;;;1.77;;
2756;SDS011;1386;50.862;6.494;2023-04-01T06:50:47;2.57;;;2.00;;
2756;SDS011;1386;50.862;6.494;2023-04-01T06:53:21;3.03;;;1.80;;
2756;SDS011;1386;50.862;6.494;2023-04-01T06:56:02;1.97;;;1.77;;
2756;SDS011;1386;50.862;6.494;2023-04-01T06:58:41;2.43;;;1.90;;
2756;SDS011;1386;50.862;6.494;2023-04-01T07:01:29;2.63;;;2.07;;
2756;SDS011;1386;50.862;6.494;2023-04-01T07:04:05;1.73;;;1.60;;
2756;SDS011;1386;50.862;6.494;2023-04-01T07:06:52;2.10;;;1.90;;
2756;SDS011;1386;50.862;6.494;2023-04-01T07:10:04;4.50;;;2.03;;
2756;SDS011;1386;50.862;6.494;2023-04-01T07:12:44;2.73;;;2.13;;
2756;SDS011;1386;50.862;6.494;2023-04-01T07:15:17;2.20;;;1.83;;
2756;SDS011;1386;50.862;6.494;2023-04-01T07:17:51;1.90;;;1.80;;
2756;SDS011;1386;50.862;6.494;2023-04-01T07:20:37;2.00;;;1.90;;
2756;SDS011;1386;50.862;6.494;2023-04-01T07:23:10;2.30;;;2.10;;
2756;SDS011;1386;50.862;6.494;2023-04-01T07:25:51;1.87;;;1.73;;
2756;SDS011;1386;50.862;6.494;2023-04-01T07:28:21;2.13;;;1.70;;
2756;SDS011;1386;50.862;6.494;2023-04-01T07:30:52;2.07;;;1.80;;
2756;SDS011;1386;50.862;6.494;2023-04-01T07:33:32;2.00;;;1.80;;
2756;SDS011;1386;50.862;6.494;2023-04-01T07:36:08;1.90;;;1.80;;
2756;SDS011;1386;50.862;6.494;2023-04-01T07:38:41;2.50;;;1.50;;
2756;SDS011;1386;50.862;6.494;2023-04-01T07:41:18;2.17;;;1.60;;
2756;SDS011;1386;50.862;6.494;2023-04-01T07:43:55;2.23;;;1.83;;
2756;SDS011;1386;50.862;6.494;2023-04-01T07:46:40;1.67;;;1.57;;
2756;SDS011;1386;50.862;6.494;2023-04-01T07:49:22;1.60;;;1.50;;
2756;SDS011;1386;50.862;6.494;2023-04-01T07:51:58;2.23;;;1.70;;
2756;SDS011;1386;50.862;6.494;2023-04-01T07:54:32;3.10;;;1.80;;
2756;SDS011;1386;50.862;6.494;2023-04-01T07:57:06;2.00;;;1.50;;
2756;SDS011;1386;50.862;6.494;2023-04-01T07:59:39;1.47;;;1.37;;
2756;SDS011;1386;50.862;6.494;2023-04-01T08:02:14;1.70;;;1.60;;
2756;SDS011;1386;50.862;6.494;2023-04-01T08:04:55;2.43;;;1.43;;
2756;SDS011;1386;50.862;6.494;2023-04-01T08:07:32;1.70;;;1.60;;
2756;SDS011;1386;50.862;6.494;2023-04-01T08:10:07;2.53;;;1.80;;
2756;SDS011;1386;50.862;6.494;2023-04-01T08:12:42;1.93;;;1.80;;
2756;SDS011;1386;50.862;6.494;2023-04-01T08:15:16;2.10;;;1.70;;
2756;SDS011;1386;50.862;6.494;2023-04-01T08:17:52;1.83;;;1.57;;
2756;SDS011;1386;50.862;6.494;2023-04-01T08:20:32;1.90;;;1.50;;
2756;SDS011;1386;50.862;6.494;2023-04-01T08:23:05;1.97;;;1.40;;
2756;SDS011;1386;50.862;6.494;2023-04-01T08:25:38;2.70;;;1.60;;
2756;SDS011;1386;50.862;6.494;2023-04-01T08:28:09;3.37;;;1.80;;
2756;SDS011;1386;50.862;6.494;2023-04-01T08:30:42;2.10;;;1.90;;
2756;SDS011;1386;50.862;6.494;2023-04-01T08:33:15;2.20;;;1.50;;
2756;SDS011;1386;50.862;6.494;2023-04-01T08:35:46;3.60;;;1.70;;
2756;SDS011;1386;50.862;6.494;2023-04-01T08:38:20;1.40;;;1.30;;
2756;SDS011;1386;50.862;6.494;2023-04-01T08:40:55;1.30;;;1.20;;
2756;SDS011;1386;50.862;6.494;2023-04-01T08:46:30;7.63;;;1.83;;
2756;SDS011;1386;50.862;6.494;2023-04-01T08:49:22;1.63;;;1.53;;
2756;SDS011;1386;50.862;6.494;2023-04-01T08:54:47;1.67;;;1.57;;
2756;SDS011;1386;50.862;6.494;2023-04-01T08:57:33;1.67;;;1.57;;
2756;SDS011;1386;50.862;6.494;2023-04-01T09:00:10;2.17;;;1.70;;
2756;SDS011;1386;50.862;6.494;2023-04-01T09:18:06;3.40;;;1.50;;
2756;SDS011;1386;50.862;6.494;2023-04-01T09:21:10;1.50;;;1.40;;
2756;SDS011;1386;50.862;6.494;2023-04-01T09:23:59;1.37;;;1.27;;
2756;SDS011;1386;50.862;6.494;2023-04-01T09:26:53;1.50;;;1.40;;
2756;SDS011;1386;50.862;6.494;2023-04-01T09:29:35;1.80;;;1.70;;
2756;SDS011;1386;50.862;6.494;2023-04-01T09:32:29;1.50;;;1.40;;
2756;SDS011;1386;50.862;6.494;2023-04-01T09:35:20;1.70;;;1.50;;
2756;SDS011;1386;50.862;6.494;2023-04-01T09:38:09;1.67;;;1.57;;
2756;SDS011;1386;50.862;6.494;2023-04-01T09:40:47;1.70;;;1.30;;
2756;SDS011;1386;50.862;6.494;2023-04-01T09:43:22;1.47;;;1.37;;
2756;SDS011;1386;50.862;6.494;2023-04-01T09:46:07;1.70;;;1.53;;
2756;SDS011;1386;50.862;6.494;2023-04-01T09:51:57;1.57;;;1.47;;
2756;SDS011;1386;50.862;6.494;2023-04-01T09:54:37;1.70;;;1.30;;
2756;SDS011;1386;50.862;6.494;2023-04-01T10:00:39;2.17;;;2.07;;
2756;SDS011;1386;50.862;6.494;2023-04-01T10:03:39;2.23;;;1.50;;
2756;SDS011;1386;50.862;6.494;2023-04-01T10:15:34;1.43;;;1.33;;
2756;SDS011;1386;50.862;6.494;2023-04-01T10:24:24;1.50;;;1.40;;
2756;SDS011;1386;50.862;6.494;2023-04-01T10:27:16;2.33;;;1.50;;
2756;SDS011;1386;50.862;6.494;2023-04-01T10:36:17;2.03;;;1.93;;
2756;SDS011;1386;50.862;6.494;2023-04-01T10:42:16;1.60;;;1.50;;
2756;SDS011;1386;50.862;6.494;2023-04-01T10:51:14;1.90;;;1.80;;
2756;SDS011;1386;50.862;6.494;2023-04-01T10:53:57;1.80;;;1.70;;
2756;SDS011;1386;50.862;6.494;2023-04-01T10:56:49;1.70;;;1.60;;
2756;SDS011;1386;50.862;6.494;2023-04-01T10:59:40;1.43;;;1.33;;
2756;SDS011;1386;50.862;6.494;2023-04-01T11:08:50;1.97;;;1.57;;
2756;SDS011;1386;50.862;6.494;2023-04-01T11:11:47;1.77;;;1.50;;
2756;SDS011;1386;50.862;6.494;2023-04-01T11:24:03;2.27;;;1.60;;
2756;SDS011;1386;50.862;6.494;2023-04-01T11:26:51;2.00;;;1.80;;
2756;SDS011;1386;50.862;6.494;2023-04-01T11:29:35;1.67;;;1.57;;
2756;SDS011;1386;50.862;6.494;2023-04-01T11:32:31;2.07;;;1.77;;
2756;SDS011;1386;50.862;6.494;2023-04-01T11:35:19;1.50;;;1.40;;
2756;SDS011;1386;50.862;6.494;2023-04-01T11:38:04;1.67;;;1.57;;
2756;SDS011;1386;50.862;6.494;2023-04-01T11:40:47;1.47;;;1.37;;
2756;SDS011;1386;50.862;6.494;2023-04-01T11:43:21;1.60;;;1.50;;
2756;SDS011;1386;50.862;6.494;2023-04-01T11:45:57;1.60;;;1.50;;
2756;SDS011;1386;50.862;6.494;2023-04-01T11:48:36;1.60;;;1.50;;
2756;SDS011;1386;50.862;6.494;2023-04-01T11:51:29;1.63;;;1.53;;
2756;SDS011;1386;50.862;6.494;2023-04-01T11:54:11;1.50;;;1.40;;
2756;SDS011;1386;50.862;6.494;2023-04-01T11:56:53;1.40;;;1.30;;
2756;SDS011;1386;50.862;6.494;2023-04-01T12:02:29;1.80;;;1.70;;
2756;SDS011;1386;50.862;6.494;2023-04-01T12:05:03;2.30;;;1.50;;
2756;SDS011;1386;50.862;6.494;2023-04-01T12:07:54;1.60;;;1.50;;
2756;SDS011;1386;50.862;6.494;2023-04-01T12:10:33;2.23;;;2.07;;
2756;SDS011;1386;50.862;6.494;2023-04-01T12:13:08;1.60;;;1.50;;
2756;SDS011;1386;50.862;6.494;2023-04-01T12:15:48;1.70;;;1.60;;
2756;SDS011;1386;50.862;6.494;2023-04-01T12:18:31;2.43;;;2.00;;
2756;SDS011;1386;50.862;6.494;2023-04-01T12:21:08;3.57;;;2.03;;
2756;SDS011;1386;50.862;6.494;2023-04-01T12:23:59;1.90;;;1.80;;
2756;SDS011;1386;50.862;6.494;2023-04-01T12:26:47;4.30;;;1.93;;
2756;SDS011;1386;50.862;6.494;2023-04-01T12:32:37;2.43;;;2.23;;
2756;SDS011;1386;50.862;6.494;2023-04-01T12:35:17;2.30;;;2.10;;
2756;SDS011;1386;50.862;6.494;2023-04-01T12:37:54;2.13;;;1.93;;
2756;SDS011;1386;50.862;6.494;2023-04-01T12:40:39;1.83;;;1.73;;
2756;SDS011;1386;50.862;6.494;2023-04-01T12:46:20;3.00;;;1.90;;
2756;SDS011;1386;50.862;6.494;2023-04-01T13:06:53;1.80;;;1.60;;
2756;SDS011;1386;50.862;6.494;2023-04-01T13:09:36;1.60;;;1.50;;
2756;SDS011;1386;50.862;6.494;2023-04-01T13:12:23;2.20;;;1.73;;
2756;SDS011;1386;50.862;6.494;2023-04-01T13:15:13;2.20;;;2.00;;
2756;SDS011;1386;50.862;6.494;2023-04-01T13:17:55;2.17;;;2.03;;
2756;SDS011;1386;50.862;6.494;2023-04-01T13:20:34;2.50;;;2.30;;
2756;SDS011;1386;50.862;6.494;2023-04-01T13:23:11;2.57;;;2.37;;
2756;SDS011;1386;50.862;6.494;2023-04-01T13:25:46;3.73;;;2.47;;
2756;SDS011;1386;50.862;6.494;2023-04-01T13:28:21;2.43;;;2.23;;
2756;SDS011;1386;50.862;6.494;2023-04-01T13:30:54;3.30;;;2.93;;
2756;SDS011;1386;50.862;6.494;2023-04-01T13:33:30;2.57;;;2.33;;
2756;SDS011;1386;50.862;6.494;2023-04-01T13:36:07;2.57;;;2.30;;
2756;SDS011;1386;50.862;6.494;2023-04-01T13:41:47;3.60;;;2.17;;
2756;SDS011;1386;50.862;6.494;2023-04-01T13:44:33;2.43;;;2.10;;
2756;SDS011;1386;50.862;6.494;2023-04-01T13:47:09;2.57;;;2.00;;
2756;SDS011;1386;50.862;6.494;2023-04-01T13:50:12;2.47;;;1.83;;
2756;SDS011;1386;50.862;6.494;2023-04-01T13:53:09;1.73;;;1.63;;
2756;SDS011;1386;50.862;6.494;2023-04-01T13:56:10;5.63;;;2.00;;
2756;SDS011;1386;50.862;6.494;2023-04-01T13:58:57;2.80;;;1.80;;
2756;SDS011;1386;50.862;6.494;2023-04-01T14:01:39;2.00;;;1.80;;
2756;SDS011;1386;50.862;6.494;2023-04-01T14:04:18;2.17;;;1.97;;
2756;SDS011;1386;50.862;6.494;2023-04-01T14:07:31;2.10;;;1.87;;
2756;SDS011;1386;50.862;6.494;2023-04-01T14:10:07;2.20;;;2.00;;
2756;SDS011;1386;50.862;6.494;2023-04-01T14:12:46;2.20;;;2.00;;
2756;SDS011;1386;50.862;6.494;2023-04-01T14:15:25;4.30;;;2.37;;
2756;SDS011;1386;50.862;6.494;2023-04-01T14:18:16;1.90;;;1.80;;
2756;SDS011;1386;50.862;6.494;2023-04-01T14:21:02;1.80;;;1.70;;
2756;SDS011;1386;50.862;6.494;2023-04-01T14:23:52;2.17;;;1.97;;
2756;SDS011;1386;50.862;6.494;2023-04-01T14:26:50;1.80;;;1.70;;
2756;SDS011;1386;50.862;6.494;2023-04-01T14:29:46;1.87;;;1.70;;
2756;SDS011;1386;50.862;6.494;2023-04-01T14:32:25;2.00;;;1.80;;
2756;SDS011;1386;50.862;6.494;2023-04-01T14:35:05;2.10;;;2.00;;
2756;SDS011;1386;50.862;6.494;2023-04-01T14:38:02;2.60;;;2.23;;
2756;SDS011;1386;50.862;6.494;2023-04-01T14:40:47;2.47;;;2.27;;
2756;SDS011;1386;50.862;6.494;2023-04-01T14:43:25;2.20;;;1.97;;
2756;SDS011;1386;50.862;6.494;2023-04-01T14:46:13;2.03;;;1.80;;
2756;SDS011;1386;50.862;6.494;2023-04-01T14:48:51;2.33;;;2.13;;
2756;SDS011;1386;50.862;6.494;2023-04-01T14:51:21;2.40;;;2.20;;
2756;SDS011;1386;50.862;6.494;2023-04-01T14:53:58;2.10;;;2.00;;
2756;SDS011;1386;50.862;6.494;2023-04-01T14:56:39;2.50;;;2.30;;
2756;SDS011;1386;50.862;6.494;2023-04-01T14:59:15;2.20;;;1.93;;
2756;SDS011;1386;50.862;6.494;2023-04-01T15:01:54;2.60;;;2.40;;
2756;SDS011;1386;50.862;6.494;2023-04-01T15:07:21;2.60;;;2.40;;
2756;SDS011;1386;50.862;6.494;2023-04-01T15:10:06;3.63;;;2.23;;
2756;SDS011;1386;50.862;6.494;2023-04-01T15:12:48;2.23;;;2.10;;
2756;SDS011;1386;50.862;6.494;2023-04-01T15:15:28;2.30;;;2.10;;
2756;SDS011;1386;50.862;6.494;2023-04-01T15:18:07;4.50;;;2.23;;
2756;SDS011;1386;50.862;6.494;2023-04-01T15:23:38;2.83;;;2.47;;
2756;SDS011;1386;50.862;6.494;2023-04-01T15:26:15;3.13;;;2.83;;
2756;SDS011;1386;50.862;6.494;2023-04-01T15:28:58;2.57;;;2.37;;
2756;SDS011;1386;50.862;6.494;2023-04-01T15:31:46;2.53;;;2.33;;
2756;SDS011;1386;50.862;6.494;2023-04-01T15:34:21;3.00;;;2.70;;
2756;SDS011;1386;50.862;6.494;2023-04-01T15:36:56;2.60;;;2.40;;
2756;SDS011;1386;50.862;6.494;2023-04-01T15:39:30;3.53;;;2.60;;
2756;SDS011;1386;50.862;6.494;2023-04-01T15:42:14;2.90;;;2.60;;
2756;SDS011;1386;50.862;6.494;2023-04-01T15:44:55;2.40;;;2.20;;
2756;SDS011;1386;50.862;6.494;2023-04-01T15:47:33;3.07;;;2.63;;
2756;SDS011;1386;50.862;6.494;2023-04-01T15:53:03;3.50;;;2.60;;
2756;SDS011;1386;50.862;6.494;2023-04-01T15:55:43;2.37;;;2.17;;
2756;SDS011;1386;50.862;6.494;2023-04-01T15:58:20;2.10;;;2.00;;
2756;SDS011;1386;50.862;6.494;2023-04-01T16:01:02;2.90;;;2.70;;
2756;SDS011;1386;50.862;6.494;2023-04-01T16:03:39;2.60;;;2.03;;
2756;SDS011;1386;50.862;6.494;2023-04-01T16:09:28;3.47;;;2.70;;
2756;SDS011;1386;50.862;6.494;2023-04-01T16:12:17;4.73;;;2.50;;
2756;SDS011;1386;50.862;6.494;2023-04-01T16:15:06;1.93;;;1.73;;
2756;SDS011;1386;50.862;6.494;2023-04-01T16:17:48;1.87;;;1.67;;
2756;SDS011;1386;50.862;6.494;2023-04-01T16:20:35;1.90;;;1.80;;
2756;SDS011;1386;50.862;6.494;2023-04-01T16:23:12;1.73;;;1.63;;
2756;SDS011;1386;50.862;6.494;2023-04-01T16:25:45;2.30;;;2.10;;
2756;SDS011;1386;50.862;6.494;2023-04-01T16:28:21;3.67;;;2.00;;
2756;SDS011;1386;50.862;6.494;2023-04-01T16:30:55;2.90;;;2.60;;
2756;SDS011;1386;50.862;6.494;2023-04-01T16:33:44;4.80;;;2.30;;
2756;SDS011;1386;50.862;6.494;2023-04-01T16:36:20;2.20;;;2.00;;
2756;SDS011;1386;50.862;6.494;2023-04-01T16:42:31;2.50;;;2.30;;
2756;SDS011;1386;50.862;6.494;2023-04-01T16:45:15;2.10;;;1.97;;
2756;SDS011;1386;50.862;6.494;2023-04-01T16:47:49;2.17;;;1.97;;
2756;SDS011;1386;50.862;6.494;2023-04-01T16:50:21;2.53;;;2.10;;
2756;SDS011;1386;50.862;6.494;2023-04-01T16:52:58;2.40;;;2.20;;
2756;SDS011;1386;50.862;6.494;2023-04-01T16:55:34;1.63;;;1.53;;
2756;SDS011;1386;50.862;6.494;2023-04-01T16:58:07;1.90;;;1.70;;
2756;SDS011;1386;50.862;6.494;2023-04-01T17:00:37;1.77;;;1.67;;
2756;SDS011;1386;50.862;6.494;2023-04-01T17:03:10;1.67;;;1.57;;
2756;SDS011;1386;50.862;6.494;2023-04-01T17:05:48;1.93;;;1.80;;
2756;SDS011;1386;50.862;6.494;2023-04-01T17:08:30;2.93;;;2.07;;
2756;SDS011;1386;50.862;6.494;2023-04-01T17:11:11;2.10;;;2.00;;
2756;SDS011;1386;50.862;6.494;2023-04-01T17:13:46;2.07;;;1.70;;
2756;SDS011;1386;50.862;6.494;2023-04-01T17:16:36;2.00;;;1.87;;
2756;SDS011;1386;50.862;6.494;2023-04-01T17:19:19;2.40;;;2.20;;
2756;SDS011;1386;50.862;6.494;2023-04-01T17:22:01;2.07;;;1.90;;
2756;SDS011;1386;50.862;6.494;2023-04-01T17:24:47;2.17;;;2.07;;
2756;SDS011;1386;50.862;6.494;2023-04-01T17:27:28;2.30;;;2.10;;
2756;SDS011;1386;50.862;6.494;2023-04-01T17:30:12;2.63;;;2.43;;
2756;SDS011;1386;50.862;6.494;2023-04-01T17:35:49;2.53;;;2.30;;
2756;SDS011;1386;50.862;6.494;2023-04-01T17:38:34;2.73;;;2.47;;
2756;SDS011;1386;50.862;6.494;2023-04-01T17:41:26;2.37;;;2.17;;
2756;SDS011;1386;50.862;6.494;2023-04-01T17:44:08;2.97;;;2.77;;
2756;SDS011;1386;50.862;6.494;2023-04-01T17:46:50;2.50;;;2.30;;
2756;SDS011;1386;50.862;6.494;2023-04-01T17:49:42;2.40;;;2.20;;
2756;SDS011;1386;50.862;6.494;2023-04-01T17:52:16;2.90;;;2.30;;
2756;SDS011;1386;50.862;6.494;2023-04-01T17:54:53;2.37;;;2.17;;
2756;SDS011;1386;50.862;6.494;2023-04-01T17:57:31;3.93;;;2.17;;
2756;SDS011;1386;50.862;6.494;2023-04-01T18:00:14;2.33;;;2.13;;
2756;SDS011;1386;50.862;6.494;2023-04-01T18:02:46;2.87;;;2.67;;
2756;SDS011;1386;50.862;6.494;2023-04-01T18:05:27;2.10;;;2.00;;
2756;SDS011;1386;50.862;6.494;2023-04-01T18:10:56;3.30;;;1.97;;
2756;SDS011;1386;50.862;6.494;2023-04-01T18:13:51;2.43;;;2.23;;
2756;SDS011;1386;50.862;6.494;2023-04-01T18:16:51;2.70;;;2.50;;
2756;SDS011;1386;50.862;6.494;2023-04-01T18:19:30;2.70;;;2.50;;
2756;SDS011;1386;50.862;6.494;2023-04-01T18:22:09;3.20;;;3.00;;
2756;SDS011;1386;50.862;6.494;2023-04-01T18:24:44;3.60;;;3.10;;
2756;SDS011;1386;50.862;6.494;2023-04-01T18:27:17;3.80;;;3.40;;
2756;SDS011;1386;50.862;6.494;2023-04-01T18:29:49;3.10;;;2.90;;
2756;SDS011;1386;50.862;6.494;2023-04-01T18:32:25;3.63;;;2.97;;
2756;SDS011;1386;50.862;6.494;2023-04-01T18:34:59;3.40;;;3.10;;
2756;SDS011;1386;50.862;6.494;2023-04-01T18:37:39;3.00;;;2.80;;
2756;SDS011;1386;50.862;6.494;2023-04-01T18:40:15;3.40;;;3.10;;
2756;SDS011;1386;50.862;6.494;2023-04-01T18:49:06;3.37;;;3.07;;
2756;SDS011;1386;50.862;6.494;2023-04-01T18:51:41;3.63;;;3.33;;
2756;SDS011;1386;50.862;6.494;2023-04-01T19:10:16;3.30;;;3.10;;
2756;SDS011;1386;50.862;6.494;2023-04-01T19:12:52;3.80;;;3.50;;
2756;SDS011;1386;50.862;6.494;2023-04-01T19:15:44;6.23;;;3.97;;
2756;SDS011;1386;50.862;6.494;2023-04-01T19:35:24;4.00;;;3.50;;
2756;SDS011;1386;50.862;6.494;2023-04-01T19:38:01;4.37;;;3.80;;
2756;SDS011;1386;50.862;6.494;2023-04-01T19:40:42;3.70;;;3.40;;
2756;SDS011;1386;50.862;6.494;2023-04-01T19:43:35;3.33;;;3.03;;
2756;SDS011;1386;50.862;6.494;2023-04-01T19:46:17;2.80;;;2.60;;
2756;SDS011;1386;50.862;6.494;2023-04-01T19:48:59;2.43;;;2.23;;
2756;SDS011;1386;50.862;6.494;2023-04-01T19:51:37;2.60;;;2.33;;
2756;SDS011;1386;50.862;6.494;2023-04-01T20:06:59;2.17;;;1.97;;
2756;SDS011;1386;50.862;6.494;2023-04-01T20:09:37;2.33;;;2.13;;
2756;SDS011;1386;50.862;6.494;2023-04-01T20:12:18;2.60;;;2.40;;
2756;SDS011;1386;50.862;6.494;2023-04-01T20:21:42;2.20;;;2.10;;
2756;SDS011;1386;50.862;6.494;2023-04-01T20:28:11;2.50;;;2.30;;
2756;SDS011;1386;50.862;6.494;2023-04-01T20:31:00;2.60;;;2.40;;
2756;SDS011;1386;50.862;6.494;2023-04-01T20:33:57;3.20;;;2.20;;
2756;SDS011;1386;50.862;6.494;2023-04-01T20:36:44;3.00;;;2.67;;
2756;SDS011;1386;50.862;6.494;2023-04-01T20:42:29;2.90;;;2.70;;
2756;SDS011;1386;50.862;6.494;2023-04-01T20:45:18;2.70;;;2.50;;
2756;SDS011;1386;50.862;6.494;2023-04-01T21:08:39;3.87;;;2.93;;
2756;SDS011;1386;50.862;6.494;2023-04-01T21:25:28;4.93;;;3.50;;
2756;SDS011;1386;50.862;6.494;2023-04-01T21:28:07;3.63;;;3.33;;
2756;SDS011;1386;50.862;6.494;2023-04-01T21:30:54;2.93;;;2.70;;
2756;SDS011;1386;50.862;6.494;2023-04-01T21:33:37;3.00;;;2.80;;
2756;SDS011;1386;50.862;6.494;2023-04-01T21:36:18;3.43;;;3.13;;
2756;SDS011;1386;50.862;6.494;2023-04-01T21:39:06;3.80;;;3.50;;
2756;SDS011;1386;50.862;6.494;2023-04-01T21:41:59;3.60;;;3.30;;
2756;SDS011;1386;50.862;6.494;2023-04-01T21:44:41;3.43;;;2.90;;
2756;SDS011;1386;50.862;6.494;2023-04-01T21:53:39;4.33;;;3.93;;
2756;SDS011;1386;50.862;6.494;2023-04-01T21:56:29;3.97;;;3.67;;
2756;SDS011;1386;50.862;6.494;2023-04-01T21:59:31;4.07;;;3.67;;
2756;SDS011;1386;50.862;6.494;2023-04-01T22:02:25;4.13;;;3.73;;
2756;SDS011;1386;50.862;6.494;2023-04-01T22:05:10;4.73;;;4.33;;
2756;SDS011;1386;50.862;6.494;2023-04-01T22:07:44;5.20;;;4.57;;
2756;SDS011;1386;50.862;6.494;2023-04-01T22:10:19;5.23;;;4.73;;
2756;SDS011;1386;50.862;6.494;2023-04-01T22:12:54;5.00;;;4.03;;
2756;SDS011;1386;50.862;6.494;2023-04-01T22:15:46;5.33;;;4.83;;
2756;SDS011;1386;50.862;6.494;2023-04-01T22:18:21;9.03;;;8.13;;
2756;SDS011;1386;50.862;6.494;2023-04-01T22:20:59;12.40;;;11.10;;
2756;SDS011;1386;50.862;6.494;2023-04-01T22:23:32;13.17;;;11.87;;
2756;SDS011;1386;50.862;6.494;2023-04-01T22:26:32;13.57;;;12.17;;
2756;SDS011;1386;50.862;6.494;2023-04-01T22:29:05;14.17;;;12.77;;
2756;SDS011;1386;50.862;6.494;2023-04-01T22:31:37;12.93;;;11.67;;
2756;SDS011;1386;50.862;6.494;2023-04-01T22:37:19;11.30;;;10.00;;
2756;SDS011;1386;50.862;6.494;2023-04-01T22:43:10;10.30;;;9.40;;
2756;SDS011;1386;50.862;6.494;2023-04-01T22:45:47;12.27;;;9.60;;
2756;SDS011;1386;50.862;6.494;2023-04-01T22:48:39;11.60;;;10.40;;
2756;SDS011;1386;50.862;6.494;2023-04-01T22:51:39;11.83;;;10.60;;
2756;SDS011;1386;50.862;6.494;2023-04-01T22:54:23;12.97;;;11.77;;
2756;SDS011;1386;50.862;6.494;2023-04-01T22:57:10;11.73;;;10.60;;
2756;SDS011;1386;50.862;6.494;2023-04-01T22:59:42;12.63;;;11.33;;
2756;SDS011;1386;50.862;6.494;2023-04-01T23:02:15;11.50;;;10.40;;
2756;SDS011;1386;50.862;6.494;2023-04-01T23:04:47;11.37;;;10.27;;
2756;SDS011;1386;50.862;6.494;2023-04-01T23:07:24;14.47;;;10.50;;
2756;SDS011;1386;50.862;6.494;2023-04-01T23:10:38;9.33;;;8.30;;
2756;SDS011;1386;50.862;6.494;2023-04-01T23:13:26;8.63;;;7.83;;
2756;SDS011;1386;50.862;6.494;2023-04-01T23:15:57;7.00;;;6.30;;
2756;SDS011;1386;50.862;6.494;2023-04-01T23:18:45;7.50;;;6.80;;
2756;SDS011;1386;50.862;6.494;2023-04-01T23:28:22;7.70;;;7.03;;
2756;SDS011;1386;50.862;6.494;2023-04-01T23:34:21;6.33;;;5.70;;
2756;SDS011;1386;50.862;6.494;2023-04-01T23:40:03;5.07;;;4.67;;
2756;SDS011;1386;50.862;6.494;2023-04-01T23:43:13;5.10;;;4.60;;
2756;SDS011;1386;50.862;6.494;2023-04-01T23:48:48;4.67;;;4.27;;
2756;SDS011;1386;50.862;6.494;2023-04-01T23:51:38;4.97;;;4.53;;
2756;SDS011;1386;50.862;6.494;2023-04-01T23:54:17;4.80;;;4.40;;
2756;SDS011;1386;50.862;6.494;2023-04-01T23:59:58;4.93;;;4.53;;
